Terminal Aerodrome Forecast
Issued by NWS

Home | Current Version | Previous Version | Text Only | Print | Product List | Glossary On
Versions: 1 2 3 4 5 6 7 8 9 10 11 12
000
FTUS45 KGJT 240537 AAA
TAFASE
TAF AMD
KASE 240537Z 2406/2506 21008KT P6SM SCT250
     FM241300 VRB03KT P6SM SCT250
     FM241800 33010G18KT P6SM VCTS SCT080CB BKN120
     FM250200 19008KT P6SM SCT150=

USA.gov is the U.S. government's official web portal to all federal, state and local government web resources and services.